ADDS TAF Board (Experimental) INFO

IDs: Format: Expanded Condensed

Updated at: 0247 UTC 25 Oct 2014

KPHL - Philadelphia Intl, PA, US

Issued at 2320 UTC 24 Oct 2014
Time0154Z25/03Z25/04Z25/05Z25/06Z25/07Z25/08Z25/09Z25/10Z25/11Z25/12Z25/13Z25/14Z25/15Z
TypeOBSPRVLPRVLPRVLPRVLPRVLPRVLPRVLPRVLPRVLPRVLPRVLPRVLPRVL
VIS10>6>6>6>6>6>6>6>6>6>6>6>6>6
CIG250--------------------------
CoverBKNSCTSCTSCTSCTSCTSCTSCTSCTSCTSCTSCTSCTSCT
FltCat--VFRVFRVFRVFRVFRVFRVFRVFRVFRVFRVFRVFRVFR
WX----------------------------
WDir280300300300300300300300300300300300300300
WSpd510101010101010101010101010
WGst----------------------------
R08/26
XWnd27777777777777
HWnd-5-7-7-7-7-7-7-7-7-7-7-7-7-7
R09/27
XWnd27777777777777
HWnd-5-7-7-7-7-7-7-7-7-7-7-7-7-7
R17/35
XWnd-4-6-6-6-6-6-6-6-6-6-6-6-6-6
HWnd-3-8-8-8-8-8-8-8-8-8-8-8-8-8
Raw TAF
KPHL 242320Z 2500/2606 30010KT P6SM SCT200
  FM251600 27011G19KT P6SM FEW040
  FM252300 21010KT P6SM SCT050


Raw METAR
KPHL 250154Z 28005KT 10SM BKN250 16/03 A2987 RMK AO2 SLP116 T01610028

TAF Board Legend

Hazard VFR MVFR IFR LIFR
Visibility (sm) >5 3≤X≤5 1≤X<3 <1
Ceiling (100 ft) >30 10≤X≤30 5≤X<10 <5
Wind Speed (kt) <10 10≤X<20 20≤X<30 ≥30
Wind Gust (kt) <15 15≤X<25 25≤X<35 ≥35
Weather No Wx Reported VCTS,-TS,-FZRA TS,FZRA +TS,+FZRA


Page loaded:  02:47 UTC  |   07:47 PM Pacific  |   08:47 PM Mountain  |   09:47 PM Central  |   10:47 PM Eastern

 

ADVISORIES

FORECASTS

FORECASTS

OBSERVATIONS

USER TOOLS

ABOUT US